sensor_id;sensor_type;location;lat;lon;timestamp;P1;durP1;ratioP1;P2;durP2;ratioP2
70455;SDS011;57916;51.996;5.180;2022-10-31T00:01:13;17.02;;;8.27;;
70455;SDS011;57916;51.996;5.180;2022-10-31T00:04:00;17.83;;;8.48;;
70455;SDS011;57916;51.996;5.180;2022-10-31T00:06:28;16.38;;;8.25;;
70455;SDS011;57916;51.996;5.180;2022-10-31T00:08:56;17.10;;;8.07;;
70455;SDS011;57916;51.996;5.180;2022-10-31T00:11:25;15.13;;;8.07;;
70455;SDS011;57916;51.996;5.180;2022-10-31T00:13:53;19.50;;;8.40;;
70455;SDS011;57916;51.996;5.180;2022-10-31T00:16:21;15.90;;;8.63;;
70455;SDS011;57916;51.996;5.180;2022-10-31T00:18:49;14.48;;;8.10;;
70455;SDS011;57916;51.996;5.180;2022-10-31T00:21:17;19.15;;;8.38;;
70455;SDS011;57916;51.996;5.180;2022-10-31T00:23:44;15.98;;;8.75;;
70455;SDS011;57916;51.996;5.180;2022-10-31T00:26:11;15.55;;;8.27;;
70455;SDS011;57916;51.996;5.180;2022-10-31T00:28:38;16.55;;;8.43;;
70455;SDS011;57916;51.996;5.180;2022-10-31T00:31:06;12.93;;;7.63;;
70455;SDS011;57916;51.996;5.180;2022-10-31T00:33:34;19.90;;;8.10;;
70455;SDS011;57916;51.996;5.180;2022-10-31T00:36:04;15.70;;;8.23;;
70455;SDS011;57916;51.996;5.180;2022-10-31T00:38:32;16.88;;;8.10;;
70455;SDS011;57916;51.996;5.180;2022-10-31T00:40:59;17.00;;;8.03;;
70455;SDS011;57916;51.996;5.180;2022-10-31T00:43:26;10.93;;;7.65;;
70455;SDS011;57916;51.996;5.180;2022-10-31T00:45:53;15.35;;;8.40;;
70455;SDS011;57916;51.996;5.180;2022-10-31T00:48:23;14.32;;;8.05;;
70455;SDS011;57916;51.996;5.180;2022-10-31T00:50:51;17.05;;;8.02;;
70455;SDS011;57916;51.996;5.180;2022-10-31T00:53:19;16.65;;;8.32;;
70455;SDS011;57916;51.996;5.180;2022-10-31T00:55:46;10.88;;;8.05;;
70455;SDS011;57916;51.996;5.180;2022-10-31T00:58:13;18.08;;;7.97;;
70455;SDS011;57916;51.996;5.180;2022-10-31T01:00:40;16.77;;;8.50;;
70455;SDS011;57916;51.996;5.180;2022-10-31T01:03:07;16.70;;;8.10;;
70455;SDS011;57916;51.996;5.180;2022-10-31T01:05:38;10.15;;;6.68;;
70455;SDS011;57916;51.996;5.180;2022-10-31T01:08:05;10.20;;;5.60;;
70455;SDS011;57916;51.996;5.180;2022-10-31T01:10:31;8.20;;;5.22;;
70455;SDS011;57916;51.996;5.180;2022-10-31T01:12:58;9.50;;;6.10;;
70455;SDS011;57916;51.996;5.180;2022-10-31T01:15:26;15.27;;;7.93;;
70455;SDS011;57916;51.996;5.180;2022-10-31T01:17:53;16.50;;;7.80;;
70455;SDS011;57916;51.996;5.180;2022-10-31T01:20:20;16.38;;;7.55;;
70455;SDS011;57916;51.996;5.180;2022-10-31T01:22:46;5.75;;;4.72;;
70455;SDS011;57916;51.996;5.180;2022-10-31T01:25:14;7.00;;;4.78;;
70455;SDS011;57916;51.996;5.180;2022-10-31T01:27:41;9.67;;;6.60;;
70455;SDS011;57916;51.996;5.180;2022-10-31T01:30:10;13.07;;;6.00;;
70455;SDS011;57916;51.996;5.180;2022-10-31T01:32:37;11.02;;;6.13;;
70455;SDS011;57916;51.996;5.180;2022-10-31T01:35:04;10.70;;;6.00;;
70455;SDS011;57916;51.996;5.180;2022-10-31T01:37:31;5.50;;;4.70;;
70455;SDS011;57916;51.996;5.180;2022-10-31T01:39:58;5.82;;;4.93;;
70455;SDS011;57916;51.996;5.180;2022-10-31T01:42:25;5.30;;;4.80;;
70455;SDS011;57916;51.996;5.180;2022-10-31T01:44:56;4.63;;;4.20;;
70455;SDS011;57916;51.996;5.180;2022-10-31T01:47:34;11.45;;;6.20;;
70455;SDS011;57916;51.996;5.180;2022-10-31T01:50:10;11.95;;;7.10;;
70455;SDS011;57916;51.996;5.180;2022-10-31T01:52:43;8.43;;;6.15;;
70455;SDS011;57916;51.996;5.180;2022-10-31T01:55:26;9.63;;;6.07;;
70455;SDS011;57916;51.996;5.180;2022-10-31T01:57:59;8.20;;;5.53;;
70455;SDS011;57916;51.996;5.180;2022-10-31T02:00:32;13.10;;;7.13;;
70455;SDS011;57916;51.996;5.180;2022-10-31T02:03:00;12.20;;;6.70;;
70455;SDS011;57916;51.996;5.180;2022-10-31T02:05:29;6.85;;;4.65;;
70455;SDS011;57916;51.996;5.180;2022-10-31T02:08:16;5.80;;;3.65;;
70455;SDS011;57916;51.996;5.180;2022-10-31T02:10:51;3.10;;;2.90;;
70455;SDS011;57916;51.996;5.180;2022-10-31T02:13:19;3.53;;;3.33;;
70455;SDS011;57916;51.996;5.180;2022-10-31T02:15:53;3.38;;;3.08;;
70455;SDS011;57916;51.996;5.180;2022-10-31T02:18:21;3.90;;;3.60;;
70455;SDS011;57916;51.996;5.180;2022-10-31T02:20:55;5.10;;;4.50;;
70455;SDS011;57916;51.996;5.180;2022-10-31T02:26:41;5.65;;;3.13;;
70455;SDS011;57916;51.996;5.180;2022-10-31T02:43:20;11.63;;;6.20;;
70455;SDS011;57916;51.996;5.180;2022-10-31T02:46:06;9.50;;;6.00;;
70455;SDS011;57916;51.996;5.180;2022-10-31T02:48:40;23.95;;;12.30;;
70455;SDS011;57916;51.996;5.180;2022-10-31T02:51:10;28.30;;;14.87;;
70455;SDS011;57916;51.996;5.180;2022-10-31T02:53:38;15.90;;;10.02;;
70455;SDS011;57916;51.996;5.180;2022-10-31T02:56:12;16.05;;;9.43;;
70455;SDS011;57916;51.996;5.180;2022-10-31T02:58:45;18.88;;;11.52;;
70455;SDS011;57916;51.996;5.180;2022-10-31T03:06:20;28.47;;;15.00;;
70455;SDS011;57916;51.996;5.180;2022-10-31T03:09:11;31.08;;;14.70;;
70455;SDS011;57916;51.996;5.180;2022-10-31T03:11:45;23.25;;;13.18;;
70455;SDS011;57916;51.996;5.180;2022-10-31T03:14:31;31.10;;;15.70;;
70455;SDS011;57916;51.996;5.180;2022-10-31T03:17:03;18.30;;;11.65;;
70455;SDS011;57916;51.996;5.180;2022-10-31T03:19:34;16.05;;;10.95;;
70455;SDS011;57916;51.996;5.180;2022-10-31T03:24:43;18.08;;;10.40;;
70455;SDS011;57916;51.996;5.180;2022-10-31T03:27:12;22.40;;;12.50;;
70455;SDS011;57916;51.996;5.180;2022-10-31T03:29:43;11.40;;;8.75;;
70455;SDS011;57916;51.996;5.180;2022-10-31T03:32:19;10.52;;;8.48;;
70455;SDS011;57916;51.996;5.180;2022-10-31T03:34:54;10.15;;;8.27;;
70455;SDS011;57916;51.996;5.180;2022-10-31T03:37:25;13.55;;;8.55;;
70455;SDS011;57916;51.996;5.180;2022-10-31T03:39:56;8.32;;;7.53;;
70455;SDS011;57916;51.996;5.180;2022-10-31T03:42:28;7.40;;;6.65;;
70455;SDS011;57916;51.996;5.180;2022-10-31T03:44:58;8.98;;;6.50;;
70455;SDS011;57916;51.996;5.180;2022-10-31T03:47:35;9.13;;;6.30;;
70455;SDS011;57916;51.996;5.180;2022-10-31T03:50:08;12.60;;;9.43;;
70455;SDS011;57916;51.996;5.180;2022-10-31T03:52:41;31.50;;;15.10;;
70455;SDS011;57916;51.996;5.180;2022-10-31T03:55:40;10.32;;;7.60;;
70455;SDS011;57916;51.996;5.180;2022-10-31T03:58:47;9.45;;;6.90;;
70455;SDS011;57916;51.996;5.180;2022-10-31T04:01:47;28.05;;;14.45;;
70455;SDS011;57916;51.996;5.180;2022-10-31T04:04:18;17.67;;;10.57;;
70455;SDS011;57916;51.996;5.180;2022-10-31T04:06:47;13.85;;;8.30;;
70455;SDS011;57916;51.996;5.180;2022-10-31T04:09:18;14.60;;;9.77;;
70455;SDS011;57916;51.996;5.180;2022-10-31T04:11:46;19.85;;;10.88;;
70455;SDS011;57916;51.996;5.180;2022-10-31T04:14:46;16.80;;;9.57;;
70455;SDS011;57916;51.996;5.180;2022-10-31T04:17:16;16.88;;;10.35;;
70455;SDS011;57916;51.996;5.180;2022-10-31T04:19:45;30.92;;;15.60;;
70455;SDS011;57916;51.996;5.180;2022-10-31T04:22:12;26.88;;;15.50;;
70455;SDS011;57916;51.996;5.180;2022-10-31T04:24:39;30.90;;;15.60;;
70455;SDS011;57916;51.996;5.180;2022-10-31T04:27:09;33.22;;;16.20;;
70455;SDS011;57916;51.996;5.180;2022-10-31T04:29:37;17.90;;;9.93;;
70455;SDS011;57916;51.996;5.180;2022-10-31T04:32:04;9.75;;;7.30;;
70455;SDS011;57916;51.996;5.180;2022-10-31T04:34:31;8.68;;;6.95;;
70455;SDS011;57916;51.996;5.180;2022-10-31T04:36:58;7.67;;;6.80;;
70455;SDS011;57916;51.996;5.180;2022-10-31T04:39:25;11.32;;;8.30;;
70455;SDS011;57916;51.996;5.180;2022-10-31T04:42:12;15.57;;;9.00;;
70455;SDS011;57916;51.996;5.180;2022-10-31T04:44:39;11.23;;;7.95;;
70455;SDS011;57916;51.996;5.180;2022-10-31T04:47:07;10.05;;;8.15;;
70455;SDS011;57916;51.996;5.180;2022-10-31T04:49:35;10.30;;;7.60;;
70455;SDS011;57916;51.996;5.180;2022-10-31T04:52:02;10.70;;;8.07;;
70455;SDS011;57916;51.996;5.180;2022-10-31T04:54:29;13.30;;;8.20;;
70455;SDS011;57916;51.996;5.180;2022-10-31T04:57:22;12.55;;;7.88;;
70455;SDS011;57916;51.996;5.180;2022-10-31T04:59:49;9.80;;;7.25;;
70455;SDS011;57916;51.996;5.180;2022-10-31T05:02:16;35.95;;;7.75;;
70455;SDS011;57916;51.996;5.180;2022-10-31T05:04:52;7.32;;;5.32;;
70455;SDS011;57916;51.996;5.180;2022-10-31T05:07:19;8.13;;;5.88;;
70455;SDS011;57916;51.996;5.180;2022-10-31T05:09:46;6.73;;;5.40;;
70455;SDS011;57916;51.996;5.180;2022-10-31T05:12:13;6.60;;;5.88;;
70455;SDS011;57916;51.996;5.180;2022-10-31T05:15:01;17.00;;;7.13;;
70455;SDS011;57916;51.996;5.180;2022-10-31T05:17:46;11.50;;;5.63;;
70455;SDS011;57916;51.996;5.180;2022-10-31T05:20:40;108.50;;;9.52;;
70455;SDS011;57916;51.996;5.180;2022-10-31T05:23:42;13.47;;;5.60;;
70455;SDS011;57916;51.996;5.180;2022-10-31T05:26:16;14.50;;;6.10;;
70455;SDS011;57916;51.996;5.180;2022-10-31T05:28:43;104.25;;;8.75;;
70455;SDS011;57916;51.996;5.180;2022-10-31T05:31:10;198.40;;;12.80;;
70455;SDS011;57916;51.996;5.180;2022-10-31T05:33:37;117.65;;;9.35;;
70455;SDS011;57916;51.996;5.180;2022-10-31T05:36:04;160.75;;;9.82;;
70455;SDS011;57916;51.996;5.180;2022-10-31T05:38:34;313.95;;;16.65;;
70455;SDS011;57916;51.996;5.180;2022-10-31T05:41:09;165.13;;;13.90;;
70455;SDS011;57916;51.996;5.180;2022-10-31T05:43:40;135.30;;;13.90;;
70455;SDS011;57916;51.996;5.180;2022-10-31T05:46:07;54.80;;;12.23;;
70455;SDS011;57916;51.996;5.180;2022-10-31T05:48:52;138.15;;;15.85;;
70455;SDS011;57916;51.996;5.180;2022-10-31T05:51:41;78.88;;;14.93;;
70455;SDS011;57916;51.996;5.180;2022-10-31T05:54:09;217.23;;;18.90;;
70455;SDS011;57916;51.996;5.180;2022-10-31T05:56:42;236.63;;;18.42;;
70455;SDS011;57916;51.996;5.180;2022-10-31T05:59:09;168.57;;;18.08;;
70455;SDS011;57916;51.996;5.180;2022-10-31T06:01:38;185.32;;;18.63;;
70455;SDS011;57916;51.996;5.180;2022-10-31T06:04:12;163.00;;;19.20;;
70455;SDS011;57916;51.996;5.180;2022-10-31T06:06:40;161.30;;;19.85;;
70455;SDS011;57916;51.996;5.180;2022-10-31T06:09:08;170.80;;;20.45;;
70455;SDS011;57916;51.996;5.180;2022-10-31T06:11:35;128.20;;;19.55;;
70455;SDS011;57916;51.996;5.180;2022-10-31T06:14:02;168.60;;;22.00;;
70455;SDS011;57916;51.996;5.180;2022-10-31T06:16:53;150.75;;;22.92;;
70455;SDS011;57916;51.996;5.180;2022-10-31T06:19:44;130.07;;;22.05;;
70455;SDS011;57916;51.996;5.180;2022-10-31T06:22:15;134.05;;;22.95;;
70455;SDS011;57916;51.996;5.180;2022-10-31T06:24:42;124.05;;;24.23;;
70455;SDS011;57916;51.996;5.180;2022-10-31T06:27:32;133.52;;;22.70;;
70455;SDS011;57916;51.996;5.180;2022-10-31T06:30:07;219.18;;;25.25;;
70455;SDS011;57916;51.996;5.180;2022-10-31T06:32:35;177.30;;;24.47;;
70455;SDS011;57916;51.996;5.180;2022-10-31T06:35:02;199.80;;;24.75;;
70455;SDS011;57916;51.996;5.180;2022-10-31T06:37:32;164.07;;;23.48;;
70455;SDS011;57916;51.996;5.180;2022-10-31T06:40:19;120.95;;;22.60;;
70455;SDS011;57916;51.996;5.180;2022-10-31T06:43:05;151.98;;;24.10;;
70455;SDS011;57916;51.996;5.180;2022-10-31T06:45:32;116.90;;;23.98;;
70455;SDS011;57916;51.996;5.180;2022-10-31T06:48:29;131.40;;;23.80;;
70455;SDS011;57916;51.996;5.180;2022-10-31T06:51:16;121.00;;;23.08;;
70455;SDS011;57916;51.996;5.180;2022-10-31T06:53:43;137.43;;;24.27;;
70455;SDS011;57916;51.996;5.180;2022-10-31T06:56:11;134.95;;;22.60;;
70455;SDS011;57916;51.996;5.180;2022-10-31T06:58:46;121.97;;;22.52;;
70455;SDS011;57916;51.996;5.180;2022-10-31T07:01:15;115.18;;;21.67;;
70455;SDS011;57916;51.996;5.180;2022-10-31T07:03:42;82.07;;;21.50;;
70455;SDS011;57916;51.996;5.180;2022-10-31T07:06:09;86.45;;;21.88;;
70455;SDS011;57916;51.996;5.180;2022-10-31T07:08:37;120.30;;;24.30;;
70455;SDS011;57916;51.996;5.180;2022-10-31T07:11:04;85.85;;;26.50;;
70455;SDS011;57916;51.996;5.180;2022-10-31T07:13:32;147.57;;;24.83;;
70455;SDS011;57916;51.996;5.180;2022-10-31T07:16:03;36.53;;;16.30;;
70455;SDS011;57916;51.996;5.180;2022-10-31T07:18:34;29.92;;;15.82;;
70455;SDS011;57916;51.996;5.180;2022-10-31T07:21:02;32.08;;;15.85;;
70455;SDS011;57916;51.996;5.180;2022-10-31T07:23:31;24.92;;;15.63;;
70455;SDS011;57916;51.996;5.180;2022-10-31T07:26:16;129.23;;;18.10;;
70455;SDS011;57916;51.996;5.180;2022-10-31T07:28:46;84.30;;;16.77;;
70455;SDS011;57916;51.996;5.180;2022-10-31T07:31:16;35.25;;;14.55;;
70455;SDS011;57916;51.996;5.180;2022-10-31T07:33:43;19.13;;;13.73;;
70455;SDS011;57916;51.996;5.180;2022-10-31T07:36:39;23.30;;;14.13;;
70455;SDS011;57916;51.996;5.180;2022-10-31T07:39:06;50.15;;;15.85;;
70455;SDS011;57916;51.996;5.180;2022-10-31T07:41:34;72.00;;;14.50;;
70455;SDS011;57916;51.996;5.180;2022-10-31T07:44:01;28.88;;;13.38;;
70455;SDS011;57916;51.996;5.180;2022-10-31T07:46:28;102.53;;;16.50;;
70455;SDS011;57916;51.996;5.180;2022-10-31T07:49:14;34.57;;;14.33;;
70455;SDS011;57916;51.996;5.180;2022-10-31T07:51:59;32.53;;;13.20;;
70455;SDS011;57916;51.996;5.180;2022-10-31T07:54:32;39.70;;;13.43;;
70455;SDS011;57916;51.996;5.180;2022-10-31T07:56:59;31.02;;;12.63;;
70455;SDS011;57916;51.996;5.180;2022-10-31T07:59:27;33.28;;;13.02;;
70455;SDS011;57916;51.996;5.180;2022-10-31T08:01:54;17.33;;;12.43;;
70455;SDS011;57916;51.996;5.180;2022-10-31T08:04:30;18.58;;;12.35;;
70455;SDS011;57916;51.996;5.180;2022-10-31T08:07:15;22.38;;;13.15;;
70455;SDS011;57916;51.996;5.180;2022-10-31T08:09:50;30.95;;;14.02;;
70455;SDS011;57916;51.996;5.180;2022-10-31T08:12:20;33.33;;;14.30;;
70455;SDS011;57916;51.996;5.180;2022-10-31T08:14:48;28.20;;;15.05;;
70455;SDS011;57916;51.996;5.180;2022-10-31T08:17:18;35.10;;;14.35;;
70455;SDS011;57916;51.996;5.180;2022-10-31T08:19:51;32.60;;;14.18;;
70455;SDS011;57916;51.996;5.180;2022-10-31T08:22:22;38.30;;;14.90;;
70455;SDS011;57916;51.996;5.180;2022-10-31T08:24:49;31.70;;;15.45;;
70455;SDS011;57916;51.996;5.180;2022-10-31T08:27:17;34.35;;;16.10;;
70455;SDS011;57916;51.996;5.180;2022-10-31T08:29:44;29.00;;;16.13;;
70455;SDS011;57916;51.996;5.180;2022-10-31T08:32:11;29.63;;;15.95;;
70455;SDS011;57916;51.996;5.180;2022-10-31T08:34:57;39.60;;;18.63;;
70455;SDS011;57916;51.996;5.180;2022-10-31T08:38:00;38.72;;;18.98;;
70455;SDS011;57916;51.996;5.180;2022-10-31T08:40:29;51.57;;;19.87;;
70455;SDS011;57916;51.996;5.180;2022-10-31T08:43:01;57.33;;;20.15;;
70455;SDS011;57916;51.996;5.180;2022-10-31T08:45:30;78.78;;;19.98;;
70455;SDS011;57916;51.996;5.180;2022-10-31T08:47:59;77.85;;;20.63;;
70455;SDS011;57916;51.996;5.180;2022-10-31T08:50:29;93.82;;;20.40;;
70455;SDS011;57916;51.996;5.180;2022-10-31T08:53:01;93.47;;;21.45;;
70455;SDS011;57916;51.996;5.180;2022-10-31T08:55:36;79.10;;;21.17;;
70455;SDS011;57916;51.996;5.180;2022-10-31T08:58:10;71.05;;;19.88;;
70455;SDS011;57916;51.996;5.180;2022-10-31T09:00:48;49.88;;;20.02;;
70455;SDS011;57916;51.996;5.180;2022-10-31T09:03:26;34.55;;;17.75;;
70455;SDS011;57916;51.996;5.180;2022-10-31T09:05:59;47.05;;;19.60;;
70455;SDS011;57916;51.996;5.180;2022-10-31T09:08:29;33.35;;;18.45;;
70455;SDS011;57916;51.996;5.180;2022-10-31T09:10:57;41.60;;;21.00;;
70455;SDS011;57916;51.996;5.180;2022-10-31T09:13:43;37.40;;;18.40;;
70455;SDS011;57916;51.996;5.180;2022-10-31T09:16:45;54.28;;;24.08;;
70455;SDS011;57916;51.996;5.180;2022-10-31T09:19:19;44.58;;;22.73;;
70455;SDS011;57916;51.996;5.180;2022-10-31T09:21:47;42.78;;;21.83;;
70455;SDS011;57916;51.996;5.180;2022-10-31T09:24:14;47.08;;;23.33;;
70455;SDS011;57916;51.996;5.180;2022-10-31T09:26:41;51.42;;;25.20;;
70455;SDS011;57916;51.996;5.180;2022-10-31T09:29:18;57.03;;;25.60;;
70455;SDS011;57916;51.996;5.180;2022-10-31T09:31:52;52.97;;;25.42;;
70455;SDS011;57916;51.996;5.180;2022-10-31T09:34:24;55.30;;;25.67;;
70455;SDS011;57916;51.996;5.180;2022-10-31T09:37:07;54.33;;;26.40;;
70455;SDS011;57916;51.996;5.180;2022-10-31T09:39:34;50.53;;;24.33;;
70455;SDS011;57916;51.996;5.180;2022-10-31T09:42:23;51.30;;;24.83;;
70455;SDS011;57916;51.996;5.180;2022-10-31T09:47:35;40.47;;;20.67;;
70455;SDS011;57916;51.996;5.180;2022-10-31T09:50:31;39.80;;;20.58;;
70455;SDS011;57916;51.996;5.180;2022-10-31T09:53:23;34.13;;;19.45;;
70455;SDS011;57916;51.996;5.180;2022-10-31T09:56:00;43.33;;;21.50;;
70455;SDS011;57916;51.996;5.180;2022-10-31T09:58:31;38.40;;;21.85;;
70455;SDS011;57916;51.996;5.180;2022-10-31T10:01:04;38.00;;;20.80;;
70455;SDS011;57916;51.996;5.180;2022-10-31T10:03:34;45.00;;;21.95;;
70455;SDS011;57916;51.996;5.180;2022-10-31T10:06:29;39.88;;;21.77;;
70455;SDS011;57916;51.996;5.180;2022-10-31T10:09:20;38.45;;;21.27;;
70455;SDS011;57916;51.996;5.180;2022-10-31T10:17:49;44.27;;;21.60;;
70455;SDS011;57916;51.996;5.180;2022-10-31T10:25:38;35.63;;;19.88;;
70455;SDS011;57916;51.996;5.180;2022-10-31T10:31:03;46.40;;;19.35;;
70455;SDS011;57916;51.996;5.180;2022-10-31T10:36:41;29.55;;;16.75;;
70455;SDS011;57916;51.996;5.180;2022-10-31T10:39:14;34.53;;;16.75;;
70455;SDS011;57916;51.996;5.180;2022-10-31T10:41:49;26.63;;;13.85;;
70455;SDS011;57916;51.996;5.180;2022-10-31T10:44:39;28.00;;;15.35;;
70455;SDS011;57916;51.996;5.180;2022-10-31T10:47:37;28.90;;;14.82;;
70455;SDS011;57916;51.996;5.180;2022-10-31T10:50:18;23.75;;;13.95;;
70455;SDS011;57916;51.996;5.180;2022-10-31T10:55:50;24.23;;;12.88;;
70455;SDS011;57916;51.996;5.180;2022-10-31T10:58:22;36.78;;;14.85;;
70455;SDS011;57916;51.996;5.180;2022-10-31T11:00:49;31.88;;;14.32;;
70455;SDS011;57916;51.996;5.180;2022-10-31T11:03:19;33.67;;;14.70;;
70455;SDS011;57916;51.996;5.180;2022-10-31T11:05:47;31.38;;;14.25;;
70455;SDS011;57916;51.996;5.180;2022-10-31T11:08:26;29.77;;;14.70;;
70455;SDS011;57916;51.996;5.180;2022-10-31T11:11:19;28.88;;;15.00;;
70455;SDS011;57916;51.996;5.180;2022-10-31T11:13:44;37.22;;;16.77;;
70455;SDS011;57916;51.996;5.180;2022-10-31T11:16:15;34.17;;;17.27;;
70455;SDS011;57916;51.996;5.180;2022-10-31T11:18:53;40.53;;;18.35;;
70455;SDS011;57916;51.996;5.180;2022-10-31T11:21:31;34.42;;;17.98;;
70455;SDS011;57916;51.996;5.180;2022-10-31T11:24:11;41.40;;;18.60;;
70455;SDS011;57916;51.996;5.180;2022-10-31T11:26:43;41.67;;;18.77;;
70455;SDS011;57916;51.996;5.180;2022-10-31T11:31:42;39.63;;;18.85;;
70455;SDS011;57916;51.996;5.180;2022-10-31T11:34:30;40.35;;;19.20;;
70455;SDS011;57916;51.996;5.180;2022-10-31T11:37:15;41.97;;;20.00;;
70455;SDS011;57916;51.996;5.180;2022-10-31T11:39:45;38.53;;;19.52;;
70455;SDS011;57916;51.996;5.180;2022-10-31T11:42:28;37.42;;;19.30;;
70455;SDS011;57916;51.996;5.180;2022-10-31T11:45:14;37.80;;;17.50;;
70455;SDS011;57916;51.996;5.180;2022-10-31T11:47:42;40.03;;;19.13;;
70455;SDS011;57916;51.996;5.180;2022-10-31T11:50:17;43.38;;;20.70;;
70455;SDS011;57916;51.996;5.180;2022-10-31T11:52:48;44.22;;;20.83;;
70455;SDS011;57916;51.996;5.180;2022-10-31T11:55:29;40.28;;;19.88;;
70455;SDS011;57916;51.996;5.180;2022-10-31T11:57:57;47.22;;;21.30;;
70455;SDS011;57916;51.996;5.180;2022-10-31T12:00:26;46.03;;;21.17;;
70455;SDS011;57916;51.996;5.180;2022-10-31T12:05:52;43.65;;;20.00;;
70455;SDS011;57916;51.996;5.180;2022-10-31T12:08:20;43.75;;;20.08;;
70455;SDS011;57916;51.996;5.180;2022-10-31T12:14:05;44.63;;;19.90;;
70455;SDS011;57916;51.996;5.180;2022-10-31T12:22:07;43.95;;;19.50;;
70455;SDS011;57916;51.996;5.180;2022-10-31T12:24:56;39.83;;;18.65;;
70455;SDS011;57916;51.996;5.180;2022-10-31T12:27:30;40.42;;;19.20;;
70455;SDS011;57916;51.996;5.180;2022-10-31T12:32:40;38.47;;;18.52;;
70455;SDS011;57916;51.996;5.180;2022-10-31T12:40:35;42.05;;;18.95;;
70455;SDS011;57916;51.996;5.180;2022-10-31T12:46:10;34.73;;;16.20;;
70455;SDS011;57916;51.996;5.180;2022-10-31T12:51:36;38.97;;;18.73;;
70455;SDS011;57916;51.996;5.180;2022-10-31T12:59:31;40.30;;;19.33;;
70455;SDS011;57916;51.996;5.180;2022-10-31T13:02:00;43.33;;;19.83;;
70455;SDS011;57916;51.996;5.180;2022-10-31T13:07:10;47.35;;;20.38;;
70455;SDS011;57916;51.996;5.180;2022-10-31T13:09:47;48.40;;;20.88;;
70455;SDS011;57916;51.996;5.180;2022-10-31T13:12:22;41.97;;;19.80;;
70455;SDS011;57916;51.996;5.180;2022-10-31T13:15:24;47.55;;;20.85;;
70455;SDS011;57916;51.996;5.180;2022-10-31T13:17:57;38.80;;;18.95;;
70455;SDS011;57916;51.996;5.180;2022-10-31T13:20:32;43.65;;;21.08;;
70455;SDS011;57916;51.996;5.180;2022-10-31T13:23:37;48.05;;;20.70;;
70455;SDS011;57916;51.996;5.180;2022-10-31T13:26:20;43.45;;;20.00;;
70455;SDS011;57916;51.996;5.180;2022-10-31T13:28:56;47.95;;;22.30;;
70455;SDS011;57916;51.996;5.180;2022-10-31T13:31:29;45.90;;;21.77;;
70455;SDS011;57916;51.996;5.180;2022-10-31T13:33:57;43.67;;;20.30;;
70455;SDS011;57916;51.996;5.180;2022-10-31T13:36:44;51.78;;;22.23;;
70455;SDS011;57916;51.996;5.180;2022-10-31T13:39:41;49.97;;;21.70;;
70455;SDS011;57916;51.996;5.180;2022-10-31T13:42:50;45.90;;;20.83;;
70455;SDS011;57916;51.996;5.180;2022-10-31T13:45:28;55.03;;;23.20;;
70455;SDS011;57916;51.996;5.180;2022-10-31T13:47:56;43.97;;;19.90;;
70455;SDS011;57916;51.996;5.180;2022-10-31T13:50:29;41.50;;;19.67;;
70455;SDS011;57916;51.996;5.180;2022-10-31T13:55:44;46.75;;;21.63;;
70455;SDS011;57916;51.996;5.180;2022-10-31T13:58:31;52.95;;;23.40;;
70455;SDS011;57916;51.996;5.180;2022-10-31T14:03:40;49.50;;;22.10;;
70455;SDS011;57916;51.996;5.180;2022-10-31T14:09:19;52.92;;;22.05;;
70455;SDS011;57916;51.996;5.180;2022-10-31T14:11:54;48.95;;;20.33;;
70455;SDS011;57916;51.996;5.180;2022-10-31T14:14:26;48.83;;;22.60;;
70455;SDS011;57916;51.996;5.180;2022-10-31T14:17:00;45.17;;;20.87;;
70455;SDS011;57916;51.996;5.180;2022-10-31T14:19:28;52.90;;;22.65;;
70455;SDS011;57916;51.996;5.180;2022-10-31T14:21:55;48.70;;;22.73;;
70455;SDS011;57916;51.996;5.180;2022-10-31T14:31:55;51.53;;;22.30;;
70455;SDS011;57916;51.996;5.180;2022-10-31T14:34:36;65.28;;;31.83;;
70455;SDS011;57916;51.996;5.180;2022-10-31T14:51:10;50.42;;;20.67;;
70455;SDS011;57916;51.996;5.180;2022-10-31T14:53:48;49.33;;;20.83;;
70455;SDS011;57916;51.996;5.180;2022-10-31T14:56:28;42.53;;;19.30;;
70455;SDS011;57916;51.996;5.180;2022-10-31T14:58:57;48.42;;;22.35;;
70455;SDS011;57916;51.996;5.180;2022-10-31T15:01:27;49.28;;;20.92;;
70455;SDS011;57916;51.996;5.180;2022-10-31T15:04:09;43.35;;;19.70;;
70455;SDS011;57916;51.996;5.180;2022-10-31T15:06:51;51.35;;;22.17;;
70455;SDS011;57916;51.996;5.180;2022-10-31T15:09:39;47.03;;;21.27;;
70455;SDS011;57916;51.996;5.180;2022-10-31T15:12:25;46.47;;;21.48;;
70455;SDS011;57916;51.996;5.180;2022-10-31T15:14:54;46.97;;;20.58;;
70455;SDS011;57916;51.996;5.180;2022-10-31T15:17:25;49.30;;;21.10;;
70455;SDS011;57916;51.996;5.180;2022-10-31T15:19:53;51.90;;;21.67;;
70455;SDS011;57916;51.996;5.180;2022-10-31T15:22:22;45.22;;;18.85;;
70455;SDS011;57916;51.996;5.180;2022-10-31T15:24:52;49.17;;;21.23;;
70455;SDS011;57916;51.996;5.180;2022-10-31T15:27:23;43.88;;;18.50;;
70455;SDS011;57916;51.996;5.180;2022-10-31T15:29:51;42.10;;;17.95;;
70455;SDS011;57916;51.996;5.180;2022-10-31T15:32:21;47.05;;;20.65;;
70455;SDS011;57916;51.996;5.180;2022-10-31T15:34:55;43.92;;;19.40;;
70455;SDS011;57916;51.996;5.180;2022-10-31T15:37:24;43.90;;;18.98;;
70455;SDS011;57916;51.996;5.180;2022-10-31T15:39:52;48.85;;;19.20;;
70455;SDS011;57916;51.996;5.180;2022-10-31T15:42:33;50.83;;;20.70;;
70455;SDS011;57916;51.996;5.180;2022-10-31T15:47:37;48.40;;;20.52;;
70455;SDS011;57916;51.996;5.180;2022-10-31T15:50:06;44.75;;;20.58;;
70455;SDS011;57916;51.996;5.180;2022-10-31T15:52:49;43.75;;;20.00;;
70455;SDS011;57916;51.996;5.180;2022-10-31T15:55:21;46.22;;;19.60;;
70455;SDS011;57916;51.996;5.180;2022-10-31T15:57:55;46.35;;;20.60;;
70455;SDS011;57916;51.996;5.180;2022-10-31T16:00:25;49.20;;;21.20;;
70455;SDS011;57916;51.996;5.180;2022-10-31T16:05:48;48.78;;;20.83;;
70455;SDS011;57916;51.996;5.180;2022-10-31T16:08:35;43.83;;;19.48;;
70455;SDS011;57916;51.996;5.180;2022-10-31T16:11:24;45.53;;;20.63;;
70455;SDS011;57916;51.996;5.180;2022-10-31T16:14:14;47.90;;;21.30;;
70455;SDS011;57916;51.996;5.180;2022-10-31T16:16:55;46.42;;;19.70;;
70455;SDS011;57916;51.996;5.180;2022-10-31T16:19:25;49.60;;;20.88;;
70455;SDS011;57916;51.996;5.180;2022-10-31T16:22:18;54.72;;;20.88;;
70455;SDS011;57916;51.996;5.180;2022-10-31T16:25:02;51.72;;;21.25;;
70455;SDS011;57916;51.996;5.180;2022-10-31T16:27:31;50.05;;;21.23;;
70455;SDS011;57916;51.996;5.180;2022-10-31T16:30:00;51.92;;;21.30;;
70455;SDS011;57916;51.996;5.180;2022-10-31T16:32:35;51.67;;;20.38;;
70455;SDS011;57916;51.996;5.180;2022-10-31T16:37:52;54.63;;;21.50;;
70455;SDS011;57916;51.996;5.180;2022-10-31T16:40:20;55.70;;;22.00;;
70455;SDS011;57916;51.996;5.180;2022-10-31T16:42:47;49.83;;;21.90;;
70455;SDS011;57916;51.996;5.180;2022-10-31T16:45:19;49.72;;;21.05;;
70455;SDS011;57916;51.996;5.180;2022-10-31T16:47:48;53.17;;;21.73;;
70455;SDS011;57916;51.996;5.180;2022-10-31T16:50:25;47.63;;;20.85;;
70455;SDS011;57916;51.996;5.180;2022-10-31T16:52:53;50.47;;;21.02;;
70455;SDS011;57916;51.996;5.180;2022-10-31T16:58:19;55.78;;;21.90;;
70455;SDS011;57916;51.996;5.180;2022-10-31T17:00:55;49.20;;;21.40;;
70455;SDS011;57916;51.996;5.180;2022-10-31T17:03:23;55.75;;;21.42;;
70455;SDS011;57916;51.996;5.180;2022-10-31T17:05:50;58.28;;;22.13;;
70455;SDS011;57916;51.996;5.180;2022-10-31T17:08:17;50.22;;;18.60;;
70455;SDS011;57916;51.996;5.180;2022-10-31T17:10:44;53.40;;;21.65;;